Time;durP1;ratioP1;P1;durP2;ratioP2;P2;SDS_P1;SDS_P2;PMS_P1;PMS_P2;Temp;Humidity;BMP_temperature;BMP_pressure;BME280_temperature;BME280_humidity;BME280_pressure;Samples;Min_cycle;Max_cycle;Signal;HPM_P1;HPM_P2
2021/06/20 00:00:29;;;;;;;29.40;19.08;;;;;;;;;;7055140;28;20047;-84
2021/06/20 00:03:50;;;;;;;26.35;18.20;;;;;;;;;;7025091;28;20069;-85
2021/06/20 00:07:10;;;;;;;27.52;19.90;;;;;;;;;;7055006;28;20397;-86
2021/06/20 00:10:32;;;;;;;24.52;18.90;;;;;;;;;;7055066;28;20189;-85
2021/06/20 00:13:54;;;;;;;28.08;21.90;;;;;;;;;;7054409;28;20051;-85
2021/06/20 00:17:14;;;;;;;24.65;21.27;;;;;;;;;;7054758;28;20378;-85
2021/06/20 00:20:38;;;;;;;28.73;19.92;;;;;;;;;;7055116;28;20473;-84
2021/06/20 00:23:59;;;;;;;31.38;22.42;;;;;;;;;;7054100;28;20050;-84
2021/06/20 00:27:19;;;;;;;31.77;21.30;;;;;;;;;;7054392;28;20142;-84
2021/06/20 00:30:40;;;;;;;26.23;20.73;;;;;;;;;;7054186;28;20135;-84
2021/06/20 00:34:00;;;;;;;25.90;20.33;;;;;;;;;;7029387;28;20063;-84
2021/06/20 00:37:21;;;;;;;26.77;21.73;;;;;;;;;;7039283;28;20040;-84
2021/06/20 00:40:41;;;;;;;25.25;20.83;;;;;;;;;;7043724;28;20048;-84
2021/06/20 00:44:02;;;;;;;27.55;22.90;;;;;;;;;;7051094;28;20044;-84
2021/06/20 00:47:23;;;;;;;29.13;20.75;;;;;;;;;;7053827;28;20489;-85
2021/06/20 00:50:46;;;;;;;35.03;21.38;;;;;;;;;;7039707;28;20481;-84
2021/06/20 00:54:08;;;;;;;30.65;19.73;;;;;;;;;;7054194;28;20066;-84
2021/06/20 00:57:29;;;;;;;29.20;20.48;;;;;;;;;;7053142;28;20126;-85
2021/06/20 01:00:49;;;;;;;21.95;17.33;;;;;;;;;;7054074;28;20055;-85
2021/06/20 01:04:10;;;;;;;23.45;18.50;;;;;;;;;;7053755;28;20046;-84
2021/06/20 01:07:30;;;;;;;22.65;17.52;;;;;;;;;;7049054;28;20070;-84
2021/06/20 01:10:51;;;;;;;28.42;16.77;;;;;;;;;;7045569;28;20090;-83
2021/06/20 01:14:12;;;;;;;27.45;17.67;;;;;;;;;;7041207;28;20134;-83
2021/06/20 01:17:33;;;;;;;23.40;16.98;;;;;;;;;;7045023;28;20047;-84
2021/06/20 01:20:53;;;;;;;23.88;18.13;;;;;;;;;;7053639;28;20389;-84
2021/06/20 01:24:14;;;;;;;24.00;17.13;;;;;;;;;;7053984;28;20469;-84
2021/06/20 01:27:40;;;;;;;25.85;16.85;;;;;;;;;;7040500;22;20393;-84
2021/06/20 01:31:01;;;;;;;24.35;16.90;;;;;;;;;;7029636;28;20048;-84
2021/06/20 01:34:24;;;;;;;22.27;16.52;;;;;;;;;;7001967;28;20063;-84
2021/06/20 01:37:45;;;;;;;19.52;15.63;;;;;;;;;;7021582;28;20170;-84
2021/06/20 01:41:07;;;;;;;20.67;16.10;;;;;;;;;;7042483;28;20040;-84
2021/06/20 01:44:28;;;;;;;19.55;16.60;;;;;;;;;;7008635;28;20362;-84
2021/06/20 01:47:50;;;;;;;19.63;17.45;;;;;;;;;;7024599;28;20138;-84
2021/06/20 01:51:10;;;;;;;21.27;17.05;;;;;;;;;;7031672;28;20084;-84
2021/06/20 01:54:49;;;;;;;26.25;17.45;;;;;;;;;;7038465;28;20040;-83
2021/06/20 01:58:13;;;;;;;28.40;18.55;;;;;;;;;;7024650;28;20157;-84
2021/06/20 02:01:33;;;;;;;25.98;17.90;;;;;;;;;;7032959;28;20044;-84
2021/06/20 02:04:57;;;;;;;21.98;18.08;;;;;;;;;;7035534;28;20150;-84
2021/06/20 02:08:19;;;;;;;28.30;21.92;;;;;;;;;;7024115;28;20047;-84
2021/06/20 02:11:39;;;;;;;23.52;20.80;;;;;;;;;;7034067;28;20553;-84
2021/06/20 02:14:59;;;;;;;30.50;21.33;;;;;;;;;;7024107;28;20803;-83
2021/06/20 02:18:21;;;;;;;28.77;22.10;;;;;;;;;;7024374;28;20123;-83
2021/06/20 02:21:41;;;;;;;26.85;21.60;;;;;;;;;;7035074;28;20114;-83
2021/06/20 02:25:03;;;;;;;30.60;20.77;;;;;;;;;;7023981;28;20036;-84
2021/06/20 02:28:23;;;;;;;28.73;21.63;;;;;;;;;;7023597;28;20163;-84
2021/06/20 02:31:44;;;;;;;30.38;22.90;;;;;;;;;;7048682;28;20052;-84
2021/06/20 02:35:07;;;;;;;32.75;22.95;;;;;;;;;;7025121;28;20131;-84
2021/06/20 02:38:27;;;;;;;28.10;22.60;;;;;;;;;;7023393;28;20036;-83
2021/06/20 02:41:50;;;;;;;24.67;19.80;;;;;;;;;;7039198;28;20043;-84
2021/06/20 02:45:14;;;;;;;28.30;20.85;;;;;;;;;;7029339;28;20044;-83
2021/06/20 02:48:34;;;;;;;24.80;18.95;;;;;;;;;;7022778;28;20044;-85
2021/06/20 02:51:55;;;;;;;22.40;18.48;;;;;;;;;;7028330;28;20109;-83
2021/06/20 02:55:15;;;;;;;27.00;18.20;;;;;;;;;;7023301;28;20044;-83
2021/06/20 02:58:36;;;;;;;26.73;19.45;;;;;;;;;;7022963;28;20086;-83
2021/06/20 03:01:57;;;;;;;30.40;18.23;;;;;;;;;;7028893;28;20139;-83
2021/06/20 03:05:17;;;;;;;26.23;17.83;;;;;;;;;;7023115;28;20052;-83
2021/06/20 03:08:38;;;;;;;30.23;17.15;;;;;;;;;;7022838;28;20058;-83
2021/06/20 03:11:58;;;;;;;28.73;17.38;;;;;;;;;;7029613;28;20127;-83
2021/06/20 03:15:18;;;;;;;24.45;17.25;;;;;;;;;;7022811;28;20051;-84
2021/06/20 03:18:39;;;;;;;25.45;18.38;;;;;;;;;;7018953;28;20072;-83
2021/06/20 03:22:01;;;;;;;23.27;16.55;;;;;;;;;;7031096;28;20048;-83
2021/06/20 03:25:21;;;;;;;23.88;17.00;;;;;;;;;;7036830;28;20403;-83
2021/06/20 03:28:42;;;;;;;26.08;17.70;;;;;;;;;;7022994;28;20481;-84
2021/06/20 03:32:03;;;;;;;21.67;16.40;;;;;;;;;;7032323;28;20121;-84
2021/06/20 03:35:23;;;;;;;21.77;17.52;;;;;;;;;;7022681;28;20436;-84
2021/06/20 03:38:44;;;;;;;20.95;17.35;;;;;;;;;;7022392;28;20044;-84
2021/06/20 03:42:04;;;;;;;20.67;15.40;;;;;;;;;;7037419;28;20482;-84
2021/06/20 03:45:25;;;;;;;25.58;16.13;;;;;;;;;;7022217;28;20043;-83
2021/06/20 03:48:46;;;;;;;22.00;16.80;;;;;;;;;;7022546;28;20485;-83
2021/06/20 03:52:06;;;;;;;22.38;15.45;;;;;;;;;;7045998;28;20085;-84
2021/06/20 03:55:27;;;;;;;24.38;15.10;;;;;;;;;;7027091;28;20040;-84
2021/06/20 03:58:47;;;;;;;25.25;15.95;;;;;;;;;;7022437;28;20378;-85
2021/06/20 04:02:08;;;;;;;21.80;14.55;;;;;;;;;;7028477;28;20077;-84
2021/06/20 04:05:28;;;;;;;20.42;14.38;;;;;;;;;;7027186;28;20036;-84
2021/06/20 04:08:49;;;;;;;34.00;15.02;;;;;;;;;;7026516;28;20131;-83
2021/06/20 04:12:14;;;;;;;19.15;14.48;;;;;;;;;;7031730;28;20450;-84
2021/06/20 04:15:35;;;;;;;18.05;15.10;;;;;;;;;;7039688;28;20044;-84
2021/06/20 04:18:57;;;;;;;21.63;14.43;;;;;;;;;;7041527;28;20083;-84
2021/06/20 04:22:17;;;;;;;20.05;15.20;;;;;;;;;;7026251;28;20044;-84
2021/06/20 04:25:38;;;;;;;21.38;15.57;;;;;;;;;;7024529;28;20135;-84
2021/06/20 04:28:58;;;;;;;21.35;16.17;;;;;;;;;;7040455;28;20040;-84
2021/06/20 04:32:19;;;;;;;17.20;14.52;;;;;;;;;;7022373;28;20060;-84
2021/06/20 04:35:40;;;;;;;23.42;15.93;;;;;;;;;;7029041;28;20044;-85
2021/06/20 04:39:00;;;;;;;22.65;15.45;;;;;;;;;;7027493;28;20048;-83
2021/06/20 04:42:23;;;;;;;18.58;15.15;;;;;;;;;;7035407;28;20055;-84
2021/06/20 04:45:43;;;;;;;21.60;15.75;;;;;;;;;;7027558;28;20044;-84
2021/06/20 04:49:07;;;;;;;18.55;15.73;;;;;;;;;;7031986;28;20084;-84
2021/06/20 04:52:27;;;;;;;19.67;16.35;;;;;;;;;;7026027;28;20051;-85
2021/06/20 04:55:48;;;;;;;19.55;15.23;;;;;;;;;;7025858;28;20055;-85
2021/06/20 04:59:09;;;;;;;23.58;16.65;;;;;;;;;;7032941;28;20052;-85
2021/06/20 05:02:29;;;;;;;24.88;15.80;;;;;;;;;;7025343;28;20036;-85
2021/06/20 05:05:50;;;;;;;26.75;16.88;;;;;;;;;;7039929;28;20052;-85
2021/06/20 05:09:10;;;;;;;22.27;16.40;;;;;;;;;;7034609;28;20044;-84
2021/06/20 05:12:31;;;;;;;24.98;18.83;;;;;;;;;;7024366;28;20074;-85
2021/06/20 05:15:51;;;;;;;30.25;17.80;;;;;;;;;;7025880;28;20079;-85
2021/06/20 05:19:11;;;;;;;25.80;18.00;;;;;;;;;;7020840;28;20427;-85
2021/06/20 05:22:32;;;;;;;26.85;18.83;;;;;;;;;;7025477;28;20051;-85
2021/06/20 05:25:52;;;;;;;27.90;21.52;;;;;;;;;;7025140;28;20487;-84
2021/06/20 05:29:13;;;;;;;37.13;21.10;;;;;;;;;;7036837;28;20093;-84
2021/06/20 05:32:33;;;;;;;33.45;21.67;;;;;;;;;;7024605;28;20095;-85
2021/06/20 05:35:54;;;;;;;26.10;21.42;;;;;;;;;;7024814;28;20042;-85
2021/06/20 05:39:15;;;;;;;27.13;20.73;;;;;;;;;;7039509;28;20056;-85
2021/06/20 05:42:35;;;;;;;26.67;21.85;;;;;;;;;;7038335;28;20130;-86
2021/06/20 05:45:56;;;;;;;31.88;20.30;;;;;;;;;;7024854;28;20500;-84
2021/06/20 05:49:16;;;;;;;29.05;22.55;;;;;;;;;;7033203;28;20051;-84
2021/06/20 05:52:37;;;;;;;26.15;20.65;;;;;;;;;;7034339;28;20397;-85
2021/06/20 05:55:57;;;;;;;23.67;20.52;;;;;;;;;;7025580;28;20162;-85
2021/06/20 05:59:18;;;;;;;26.05;21.25;;;;;;;;;;7028686;28;20419;-84
2021/06/20 06:02:39;;;;;;;30.90;21.60;;;;;;;;;;7026655;28;20048;-85
2021/06/20 06:06:00;;;;;;;28.52;20.80;;;;;;;;;;7034993;28;20366;-86
2021/06/20 06:09:20;;;;;;;25.48;19.85;;;;;;;;;;7051701;28;20039;-85
2021/06/20 06:12:41;;;;;;;24.38;19.10;;;;;;;;;;7051814;28;20093;-86
2021/06/20 06:16:01;;;;;;;28.02;20.73;;;;;;;;;;7052076;28;20039;-86
2021/06/20 06:19:22;;;;;;;27.20;20.20;;;;;;;;;;7051648;28;20093;-86
2021/06/20 06:22:43;;;;;;;30.35;21.63;;;;;;;;;;7028463;28;20100;-87
2021/06/20 06:26:04;;;;;;;26.15;21.48;;;;;;;;;;7023368;28;20131;-87
2021/06/20 06:29:24;;;;;;;39.00;22.90;;;;;;;;;;7037187;28;20044;-87
2021/06/20 06:32:46;;;;;;;28.02;20.85;;;;;;;;;;7051322;28;20130;-87
2021/06/20 06:36:07;;;;;;;29.90;22.55;;;;;;;;;;7051540;28;20051;-87
2021/06/20 06:39:27;;;;;;;33.03;24.48;;;;;;;;;;7049242;28;20100;-87
2021/06/20 06:42:48;;;;;;;30.30;25.35;;;;;;;;;;7033700;28;20052;-87
2021/06/20 06:46:09;;;;;;;33.55;25.67;;;;;;;;;;7032520;28;20052;-88
2021/06/20 06:49:29;;;;;;;30.58;25.70;;;;;;;;;;7031477;28;20059;-87
2021/06/20 06:52:52;;;;;;;31.33;25.45;;;;;;;;;;7050561;28;20138;-87
2021/06/20 06:56:12;;;;;;;50.20;27.05;;;;;;;;;;7049539;28;20044;-87
2021/06/20 06:59:33;;;;;;;31.02;24.90;;;;;;;;;;7051112;28;20142;-87
2021/06/20 07:02:53;;;;;;;29.80;24.05;;;;;;;;;;7042617;28;20080;-86
2021/06/20 07:06:14;;;;;;;33.80;24.70;;;;;;;;;;7043645;28;20036;-87
2021/06/20 07:09:34;;;;;;;29.83;23.42;;;;;;;;;;7042788;28;20421;-91
2021/06/20 07:12:55;;;;;;;28.95;23.63;;;;;;;;;;7036107;28;20572;-89
2021/06/20 07:16:15;;;;;;;25.85;22.42;;;;;;;;;;7050547;28;20477;-91
2021/06/20 07:19:36;;;;;;;26.90;22.65;;;;;;;;;;7050585;28;20051;-91
2021/06/20 07:22:56;;;;;;;29.65;22.88;;;;;;;;;;7048477;28;20081;-87
2021/06/20 07:26:17;;;;;;;37.63;22.45;;;;;;;;;;7049979;28;20115;-93
2021/06/20 07:29:38;;;;;;;33.55;22.35;;;;;;;;;;7032367;28;20052;-94
2021/06/20 07:32:58;;;;;;;34.33;21.73;;;;;;;;;;7032410;28;20051;-95
2021/06/20 07:36:19;;;;;;;31.00;22.95;;;;;;;;;;7023631;28;20050;-96
2021/06/20 07:39:39;;;;;;;28.60;21.88;;;;;;;;;;6998332;28;20051;-96
2021/06/20 07:43:00;;;;;;;25.13;20.80;;;;;;;;;;7020467;28;20044;-96
2021/06/20 07:46:20;;;;;;;29.90;21.75;;;;;;;;;;7020115;28;20040;-85
2021/06/20 07:49:40;;;;;;;33.08;19.20;;;;;;;;;;7052752;28;20126;-87
2021/06/20 07:53:01;;;;;;;25.85;19.40;;;;;;;;;;7054279;28;20043;-88
2021/06/20 07:56:22;;;;;;;23.55;17.90;;;;;;;;;;7036103;28;20079;-88
2021/06/20 07:59:43;;;;;;;27.80;20.17;;;;;;;;;;7054220;28;20134;-88
2021/06/20 08:03:04;;;;;;;24.17;19.50;;;;;;;;;;7054890;28;20200;-88
2021/06/20 08:06:25;;;;;;;29.63;18.92;;;;;;;;;;7054488;28;20378;-88
2021/06/20 08:09:45;;;;;;;21.50;19.25;;;;;;;;;;7050704;28;20499;-86
2021/06/20 08:13:06;;;;;;;33.53;21.40;;;;;;;;;;7052844;28;20051;-89
2021/06/20 08:16:26;;;;;;;30.23;21.25;;;;;;;;;;7053317;28;20047;-88
2021/06/20 08:19:47;;;;;;;32.67;21.83;;;;;;;;;;7053120;28;20485;-86
2021/06/20 08:23:07;;;;;;;29.80;21.33;;;;;;;;;;7033969;28;20123;-89
2021/06/20 08:26:27;;;;;;;28.52;22.23;;;;;;;;;;7052846;28;20056;-87
2021/06/20 08:29:51;;;;;;;33.63;23.65;;;;;;;;;;7051371;28;20114;-95
2021/06/20 08:33:11;;;;;;;28.95;21.92;;;;;;;;;;7052062;28;20047;-94
2021/06/20 08:36:32;;;;;;;29.67;20.40;;;;;;;;;;7051814;28;20126;-96
2021/06/20 08:39:52;;;;;;;30.10;17.48;;;;;;;;;;7055397;28;20085;-96
2021/06/20 08:43:13;;;;;;;18.60;16.48;;;;;;;;;;7054427;28;20043;-96
2021/06/20 08:46:33;;;;;;;23.20;15.75;;;;;;;;;;7053451;28;20043;-96
2021/06/20 08:49:54;;;;;;;28.45;17.23;;;;;;;;;;7055296;28;20093;-96
2021/06/20 08:53:16;;;;;;;24.52;17.60;;;;;;;;;;7037133;28;20052;-96
2021/06/20 08:56:37;;;;;;;17.20;15.25;;;;;;;;;;7053156;28;20048;-96
2021/06/20 08:59:57;;;;;;;20.00;16.42;;;;;;;;;;7051035;28;20042;-96
2021/06/20 09:03:18;;;;;;;20.60;15.20;;;;;;;;;;7052558;28;20631;-96
2021/06/20 09:06:39;;;;;;;24.90;15.85;;;;;;;;;;7054058;28;20062;-96
2021/06/20 09:10:23;;;;;;;28.77;17.88;;;;;;;;;;7051843;28;20086;-96
2021/06/20 09:13:43;;;;;;;23.08;16.23;;;;;;;;;;7053388;28;20169;-95
2021/06/20 09:17:04;;;;;;;15.25;13.63;;;;;;;;;;7049334;28;20040;-94
2021/06/20 09:20:32;;;;;;;21.27;14.43;;;;;;;;;;7019414;28;20256;-96
2021/06/20 09:23:55;;;;;;;23.13;15.00;;;;;;;;;;7050411;28;20039;-96
2021/06/20 09:27:19;;;;;;;19.98;14.70;;;;;;;;;;7034300;28;20040;-96
2021/06/20 09:30:49;;;;;;;19.90;15.77;;;;;;;;;;7015250;28;20052;-96
2021/06/20 09:34:10;;;;;;;22.20;13.65;;;;;;;;;;7028086;28;20067;-96
2021/06/20 09:37:30;;;;;;;22.83;12.55;;;;;;;;;;7033792;28;20433;-95
2021/06/20 09:41:17;;;;;;;22.20;14.02;;;;;;;;;;7050591;28;20043;-96
2021/06/20 09:44:43;;;;;;;19.13;12.48;;;;;;;;;;7047166;28;20057;-96
2021/06/20 09:48:04;;;;;;;26.13;13.70;;;;;;;;;;7038846;28;20066;-94
2021/06/20 09:51:30;;;;;;;32.97;14.82;;;;;;;;;;7032759;28;20043;-88
2021/06/20 09:54:55;;;;;;;25.60;14.70;;;;;;;;;;7052199;28;20043;-89
2021/06/20 09:58:20;;;;;;;19.90;14.10;;;;;;;;;;7050028;28;20484;-89
2021/06/20 10:01:42;;;;;;;21.63;15.93;;;;;;;;;;7051136;28;20066;-89
2021/06/20 10:05:03;;;;;;;17.70;14.05;;;;;;;;;;7055456;28;20095;-96
2021/06/20 10:08:23;;;;;;;16.70;13.60;;;;;;;;;;7057740;28;20059;-96
2021/06/20 10:11:44;;;;;;;23.00;14.13;;;;;;;;;;7031552;28;20040;-86
2021/06/20 10:15:12;;;;;;;19.67;13.73;;;;;;;;;;7051087;28;20047;-85
2021/06/20 10:18:32;;;;;;;16.00;11.93;;;;;;;;;;7031841;28;20074;-87
2021/06/20 10:22:08;;;;;;;12.02;10.75;;;;;;;;;;7031908;28;20044;-85
2021/06/20 10:25:39;;;;;;;14.13;10.60;;;;;;;;;;7037838;28;20035;-84
2021/06/20 10:29:02;;;;;;;16.75;10.52;;;;;;;;;;7048706;28;20126;-83
2021/06/20 10:32:25;;;;;;;16.25;9.88;;;;;;;;;;7039705;28;20382;-84
2021/06/20 10:36:10;;;;;;;18.05;11.43;;;;;;;;;;7035132;28;20100;-84
2021/06/20 10:39:31;;;;;;;14.05;10.75;;;;;;;;;;7040463;28;20043;-85
2021/06/20 10:42:53;;;;;;;24.60;11.32;;;;;;;;;;7035935;28;20043;-84
2021/06/20 10:46:14;;;;;;;16.90;10.77;;;;;;;;;;7050931;28;20469;-85
2021/06/20 10:49:36;;;;;;;16.33;11.15;;;;;;;;;;7050489;28;20420;-85
2021/06/20 10:52:58;;;;;;;17.30;10.45;;;;;;;;;;7032552;28;20071;-84
2021/06/20 10:56:24;;;;;;;17.08;9.77;;;;;;;;;;7047341;28;20055;-84
2021/06/20 10:59:57;;;;;;;13.27;9.68;;;;;;;;;;7050376;28;20044;-84
2021/06/20 11:03:26;;;;;;;15.68;9.15;;;;;;;;;;7049647;28;20409;-83
2021/06/20 11:06:54;;;;;;;14.50;9.02;;;;;;;;;;7049919;28;20044;-84
2021/06/20 11:10:22;;;;;;;19.63;9.50;;;;;;;;;;7051124;28;20452;-86
2021/06/20 11:13:48;;;;;;;14.20;9.57;;;;;;;;;;7051542;28;20462;-87
2021/06/20 11:17:08;;;;;;;11.73;9.27;;;;;;;;;;7053439;28;20530;-87
2021/06/20 11:20:29;;;;;;;14.02;8.68;;;;;;;;;;7053524;28;20077;-87
2021/06/20 11:23:49;;;;;;;10.00;8.40;;;;;;;;;;7055413;28;20124;-87
2021/06/20 11:27:17;;;;;;;12.70;8.50;;;;;;;;;;7056119;28;20085;-87
2021/06/20 11:30:37;;;;;;;14.30;9.30;;;;;;;;;;7046873;28;20533;-87
2021/06/20 11:33:58;;;;;;;10.25;8.02;;;;;;;;;;7055419;28;20062;-86
2021/06/20 11:37:28;;;;;;;9.80;7.97;;;;;;;;;;7055232;28;20055;-88
2021/06/20 11:40:49;;;;;;;14.88;8.60;;;;;;;;;;7041558;28;20048;-87
2021/06/20 11:44:10;;;;;;;18.27;8.10;;;;;;;;;;7054349;28;20040;-87
2021/06/20 11:47:36;;;;;;;17.05;8.27;;;;;;;;;;7053894;28;20047;-87
2021/06/20 11:50:56;;;;;;;13.23;8.43;;;;;;;;;;7054378;28;20052;-87
2021/06/20 11:54:24;;;;;;;10.68;8.32;;;;;;;;;;7058004;28;20059;-86
2021/06/20 11:57:46;;;;;;;14.38;8.82;;;;;;;;;;7052084;28;20047;-87
2021/06/20 12:01:06;;;;;;;12.20;8.82;;;;;;;;;;7059284;28;20047;-86
2021/06/20 12:04:30;;;;;;;12.40;8.35;;;;;;;;;;7054414;28;20134;-86
2021/06/20 12:07:53;;;;;;;17.27;9.23;;;;;;;;;;7055146;28;20412;-87
2021/06/20 12:11:13;;;;;;;12.52;8.40;;;;;;;;;;7018227;28;20042;-88
2021/06/20 12:14:34;;;;;;;13.18;8.32;;;;;;;;;;7054548;28;20051;-87
2021/06/20 12:17:54;;;;;;;16.13;8.85;;;;;;;;;;7054486;28;20047;-88
2021/06/20 12:21:26;;;;;;;13.15;8.15;;;;;;;;;;7053498;28;20062;-87
2021/06/20 12:24:49;;;;;;;15.57;8.90;;;;;;;;;;7054029;28;20044;-88
2021/06/20 12:28:15;;;;;;;10.95;7.95;;;;;;;;;;7054049;28;20146;-88
2021/06/20 12:31:36;;;;;;;12.93;8.23;;;;;;;;;;7053985;28;20564;-87
2021/06/20 12:34:57;;;;;;;15.10;8.65;;;;;;;;;;7052397;28;20401;-86
2021/06/20 12:38:19;;;;;;;11.77;8.65;;;;;;;;;;7054240;28;20461;-87
2021/06/20 12:41:40;;;;;;;12.82;8.75;;;;;;;;;;7022546;28;20172;-87
2021/06/20 12:45:00;;;;;;;18.02;8.68;;;;;;;;;;7026212;28;20040;-90
2021/06/20 12:48:21;;;;;;;11.07;7.80;;;;;;;;;;7021407;28;20127;-89
2021/06/20 12:51:50;;;;;;;16.52;7.95;;;;;;;;;;7025536;28;20058;-90
2021/06/20 12:55:15;;;;;;;14.48;7.53;;;;;;;;;;7025371;28;20067;-89
2021/06/20 12:58:36;;;;;;;9.02;7.32;;;;;;;;;;7041357;28;20047;-90
2021/06/20 13:01:58;;;;;;;13.15;7.82;;;;;;;;;;7052240;28;20044;-90
2021/06/20 13:05:41;;;;;;;8.25;6.70;;;;;;;;;;7046653;28;20035;-90
2021/06/20 13:09:03;;;;;;;10.10;7.72;;;;;;;;;;7050118;28;20056;-88
2021/06/20 13:12:23;;;;;;;13.88;7.80;;;;;;;;;;7051780;28;20042;-88
2021/06/20 13:15:44;;;;;;;16.67;7.78;;;;;;;;;;7051849;28;20055;-85
2021/06/20 13:19:05;;;;;;;18.65;7.40;;;;;;;;;;7047582;28;20044;-84
2021/06/20 13:22:26;;;;;;;17.80;7.90;;;;;;;;;;7045423;28;20040;-85
2021/06/20 13:25:50;;;;;;;16.80;8.18;;;;;;;;;;7141162;22;20063;-85
2021/06/20 13:29:10;;;;;;;19.50;7.90;;;;;;;;;;7004173;28;20516;-84
2021/06/20 13:32:31;;;;;;;12.80;7.20;;;;;;;;;;7006471;28;20517;-87
2021/06/20 13:35:52;;;;;;;12.82;7.65;;;;;;;;;;7014240;28;21240;-91
2021/06/20 13:39:12;;;;;;;12.88;7.28;;;;;;;;;;7009758;28;20469;-85
2021/06/20 13:42:33;;;;;;;13.15;6.72;;;;;;;;;;6996527;28;20056;-86
2021/06/20 13:45:53;;;;;;;11.25;7.40;;;;;;;;;;6996329;28;20055;-84
2021/06/20 13:49:14;;;;;;;10.93;6.78;;;;;;;;;;6995823;28;20480;-85
2021/06/20 13:52:35;;;;;;;9.07;6.65;;;;;;;;;;6996458;28;20712;-84
2021/06/20 13:55:55;;;;;;;10.38;6.15;;;;;;;;;;6996129;28;20055;-84
2021/06/20 13:59:22;;;;;;;10.02;6.18;;;;;;;;;;6995790;28;20068;-84
2021/06/20 14:02:42;;;;;;;11.13;6.15;;;;;;;;;;6996223;28;20494;-83
2021/06/20 14:06:03;;;;;;;8.18;6.22;;;;;;;;;;6995833;28;20059;-84
2021/06/20 14:09:23;;;;;;;8.30;5.53;;;;;;;;;;6995936;28;20123;-84
2021/06/20 14:12:44;;;;;;;7.97;6.18;;;;;;;;;;6996217;28;20044;-84
2021/06/20 14:16:04;;;;;;;9.13;5.82;;;;;;;;;;6993013;28;20044;-84
2021/06/20 14:19:25;;;;;;;9.60;6.22;;;;;;;;;;6995168;28;20051;-83
2021/06/20 14:22:46;;;;;;;8.85;5.40;;;;;;;;;;6995849;28;20517;-83
2021/06/20 14:26:06;;;;;;;8.60;5.30;;;;;;;;;;6997060;28;20123;-83
2021/06/20 14:29:26;;;;;;;10.27;5.85;;;;;;;;;;6997354;28;20060;-83
2021/06/20 14:32:47;;;;;;;15.82;5.85;;;;;;;;;;6996360;28;20048;-84
2021/06/20 14:36:07;;;;;;;9.32;5.43;;;;;;;;;;6993515;28;20044;-83
2021/06/20 14:39:28;;;;;;;7.45;5.38;;;;;;;;;;6986916;28;20056;-83
2021/06/20 14:42:50;;;;;;;7.20;5.28;;;;;;;;;;6991135;28;20056;-83
2021/06/20 14:46:11;;;;;;;7.88;5.45;;;;;;;;;;6976866;28;20482;-84
2021/06/20 14:49:31;;;;;;;6.82;4.93;;;;;;;;;;6985138;28;20117;-83
2021/06/20 14:52:52;;;;;;;8.43;5.65;;;;;;;;;;6991494;28;20157;-84
2021/06/20 14:56:13;;;;;;;7.38;4.82;;;;;;;;;;6994352;28;20045;-84
2021/06/20 14:59:33;;;;;;;7.38;4.97;;;;;;;;;;7010347;28;20091;-84
2021/06/20 15:02:54;;;;;;;8.00;4.90;;;;;;;;;;6994200;28;20051;-84
2021/06/20 15:06:14;;;;;;;9.05;5.28;;;;;;;;;;6994925;28;20047;-84
2021/06/20 15:09:35;;;;;;;5.95;4.45;;;;;;;;;;6993120;28;20052;-84
2021/06/20 15:12:55;;;;;;;10.23;4.85;;;;;;;;;;6993493;28;20382;-83
2021/06/20 15:16:15;;;;;;;6.18;4.40;;;;;;;;;;6991861;28;20136;-83
2021/06/20 15:19:36;;;;;;;8.30;4.60;;;;;;;;;;6986218;28;20044;-82
2021/06/20 15:22:56;;;;;;;6.60;5.20;;;;;;;;;;6992158;28;20044;-83
2021/06/20 15:26:17;;;;;;;7.97;5.13;;;;;;;;;;6991863;28;20049;-83
2021/06/20 15:29:37;;;;;;;5.68;4.68;;;;;;;;;;6991222;28;20052;-84
2021/06/20 15:32:59;;;;;;;9.70;5.10;;;;;;;;;;6993412;28;20072;-83
2021/06/20 15:36:21;;;;;;;8.13;4.72;;;;;;;;;;6985396;28;20051;-84
2021/06/20 15:39:42;;;;;;;8.05;5.20;;;;;;;;;;6989352;28;20049;-84
2021/06/20 15:43:03;;;;;;;4.95;4.45;;;;;;;;;;6993377;28;20037;-84
2021/06/20 15:46:27;;;;;;;5.72;4.60;;;;;;;;;;6992882;28;20508;-83
2021/06/20 15:49:47;;;;;;;6.63;5.03;;;;;;;;;;6991564;28;20054;-83
2021/06/20 15:53:10;;;;;;;8.60;4.32;;;;;;;;;;6992469;28;20049;-84
2021/06/20 15:56:30;;;;;;;5.07;4.55;;;;;;;;;;6993429;28;20067;-83
2021/06/20 15:59:54;;;;;;;11.82;5.10;;;;;;;;;;6998633;28;20131;-83
2021/06/20 16:03:14;;;;;;;8.30;4.82;;;;;;;;;;6999544;28;20040;-82
2021/06/20 16:06:35;;;;;;;12.00;5.10;;;;;;;;;;6997839;28;20123;-83
2021/06/20 16:09:56;;;;;;;7.03;4.60;;;;;;;;;;6997794;28;20044;-83
2021/06/20 16:13:16;;;;;;;7.00;5.13;;;;;;;;;;6998570;28;20381;-80
2021/06/20 16:16:37;;;;;;;11.50;4.55;;;;;;;;;;6998464;28;20076;-80
2021/06/20 16:19:58;;;;;;;7.32;4.68;;;;;;;;;;6999294;28;20072;-81
2021/06/20 16:23:19;;;;;;;8.63;4.38;;;;;;;;;;6994047;28;20164;-81
2021/06/20 16:26:40;;;;;;;6.75;4.43;;;;;;;;;;6997419;28;20044;-81
2021/06/20 16:30:00;;;;;;;4.22;3.75;;;;;;;;;;6997082;28;20060;-81
2021/06/20 16:33:21;;;;;;;5.40;4.32;;;;;;;;;;6997774;28;20048;-81
2021/06/20 16:36:41;;;;;;;8.07;4.40;;;;;;;;;;6998046;28;20150;-81
2021/06/20 16:40:07;;;;;;;8.55;4.93;;;;;;;;;;6998240;28;20044;-81
2021/06/20 16:43:28;;;;;;;6.60;4.55;;;;;;;;;;6997995;28;20106;-81
2021/06/20 16:46:48;;;;;;;6.65;4.90;;;;;;;;;;6996334;28;20135;-81
2021/06/20 16:50:09;;;;;;;7.25;4.60;;;;;;;;;;6998461;28;20139;-81
2021/06/20 16:53:30;;;;;;;6.22;4.47;;;;;;;;;;6998105;28;20107;-81
2021/06/20 16:56:50;;;;;;;6.82;5.07;;;;;;;;;;6983992;28;20106;-81
2021/06/20 17:00:13;;;;;;;5.10;4.18;;;;;;;;;;6997930;28;20121;-81
2021/06/20 17:03:33;;;;;;;7.05;4.25;;;;;;;;;;6997406;28;20477;-81
2021/06/20 17:06:54;;;;;;;5.93;4.80;;;;;;;;;;6997416;28;20135;-81
2021/06/20 17:10:15;;;;;;;6.65;4.97;;;;;;;;;;6997536;28;20135;-82
2021/06/20 17:13:35;;;;;;;6.35;4.13;;;;;;;;;;6997806;28;20054;-81
2021/06/20 17:16:56;;;;;;;8.68;4.80;;;;;;;;;;6997193;28;20690;-82
2021/06/20 17:20:16;;;;;;;7.93;4.55;;;;;;;;;;6997467;28;20139;-81
2021/06/20 17:23:37;;;;;;;5.85;4.35;;;;;;;;;;6997637;28;20102;-81
2021/06/20 17:26:59;;;;;;;5.13;4.50;;;;;;;;;;6996961;28;20457;-81
2021/06/20 17:30:21;;;;;;;7.63;4.63;;;;;;;;;;6993657;28;20056;-81
2021/06/20 17:33:41;;;;;;;5.47;4.30;;;;;;;;;;6997242;28;20084;-81
2021/06/20 17:37:03;;;;;;;6.47;4.40;;;;;;;;;;6996529;28;20044;-81
2021/06/20 17:40:23;;;;;;;4.60;3.95;;;;;;;;;;6996876;28;20064;-81
2021/06/20 17:43:44;;;;;;;5.78;4.45;;;;;;;;;;6997300;28;20052;-81
2021/06/20 17:47:05;;;;;;;5.95;4.28;;;;;;;;;;6996592;28;20084;-81
2021/06/20 17:50:26;;;;;;;6.47;4.38;;;;;;;;;;6997229;28;20123;-81
2021/06/20 17:53:46;;;;;;;5.05;4.53;;;;;;;;;;6996833;28;20363;-81
2021/06/20 17:57:07;;;;;;;4.20;3.78;;;;;;;;;;6996453;28;20071;-81
2021/06/20 18:00:27;;;;;;;7.78;4.47;;;;;;;;;;6996666;28;20047;-81
2021/06/20 18:03:48;;;;;;;4.47;4.05;;;;;;;;;;6996370;28;20041;-81
2021/06/20 18:07:08;;;;;;;5.03;4.00;;;;;;;;;;6994416;28;20478;-81
2021/06/20 18:10:29;;;;;;;8.50;4.38;;;;;;;;;;6996227;28;20068;-81
2021/06/20 18:13:50;;;;;;;5.82;4.32;;;;;;;;;;6996368;28;20153;-81
2021/06/20 18:17:10;;;;;;;6.30;4.47;;;;;;;;;;6995990;28;20040;-81
2021/06/20 18:20:31;;;;;;;5.07;4.40;;;;;;;;;;6995519;28;20042;-81
2021/06/20 18:23:52;;;;;;;4.90;4.18;;;;;;;;;;6995916;28;20374;-81
2021/06/20 18:27:12;;;;;;;7.30;4.43;;;;;;;;;;6995984;28;20504;-81
2021/06/20 18:30:35;;;;;;;5.70;4.00;;;;;;;;;;6995908;28;20052;-81
2021/06/20 18:33:55;;;;;;;4.78;4.10;;;;;;;;;;6996082;28;20059;-81
2021/06/20 18:37:16;;;;;;;5.32;4.15;;;;;;;;;;6995417;28;20079;-81
2021/06/20 18:40:38;;;;;;;4.78;3.95;;;;;;;;;;6996161;28;20406;-81
2021/06/20 18:43:58;;;;;;;6.03;3.70;;;;;;;;;;6992372;28;20138;-82
2021/06/20 18:47:20;;;;;;;5.72;3.85;;;;;;;;;;6996766;28;20157;-82
2021/06/20 18:50:40;;;;;;;7.03;4.35;;;;;;;;;;6996823;28;20055;-82
2021/06/20 18:54:01;;;;;;;4.65;4.07;;;;;;;;;;6995220;28;20040;-82
2021/06/20 18:57:26;;;;;;;8.38;4.50;;;;;;;;;;6994956;28;20059;-81
2021/06/20 19:00:48;;;;;;;4.95;4.38;;;;;;;;;;6994755;28;20048;-81
2021/06/20 19:04:09;;;;;;;4.80;3.97;;;;;;;;;;7020818;28;20043;-81
2021/06/20 19:07:29;;;;;;;5.55;4.40;;;;;;;;;;6999354;28;20044;-81
2021/06/20 19:10:50;;;;;;;4.43;3.90;;;;;;;;;;7021450;28;20055;-81
2021/06/20 19:14:12;;;;;;;4.07;3.65;;;;;;;;;;7023130;28;20052;-81
2021/06/20 19:17:32;;;;;;;6.78;4.32;;;;;;;;;;7004129;28;20044;-81
2021/06/20 19:20:53;;;;;;;7.13;4.05;;;;;;;;;;7001737;28;20083;-87
2021/06/20 19:24:13;;;;;;;19.27;4.82;;;;;;;;;;7001679;28;20056;-87
2021/06/20 19:27:35;;;;;;;24.58;6.05;;;;;;;;;;7005150;28;20093;-87
2021/06/20 19:30:55;;;;;;;14.50;5.07;;;;;;;;;;7001644;28;20048;-87
2021/06/20 19:34:16;;;;;;;14.20;5.40;;;;;;;;;;7021316;28;20054;-87
2021/06/20 19:37:37;;;;;;;22.27;5.50;;;;;;;;;;6994933;28;20044;-87
2021/06/20 19:40:57;;;;;;;18.08;5.53;;;;;;;;;;7012675;28;20052;-87
2021/06/20 19:44:18;;;;;;;13.30;5.38;;;;;;;;;;6999878;28;20091;-87